sensor_id;sensor_type;location;lat;lon;timestamp;P1;durP1;ratioP1;P2;durP2;ratioP2
29168;SDS011;16219;42.864;23.360;2023-02-13T00:00:20;11.48;;;6.82;;
29168;SDS011;16219;42.864;23.360;2023-02-13T00:02:48;12.65;;;6.80;;
29168;SDS011;16219;42.864;23.360;2023-02-13T00:05:15;14.35;;;7.22;;
29168;SDS011;16219;42.864;23.360;2023-02-13T00:07:42;7.10;;;6.25;;
29168;SDS011;16219;42.864;23.360;2023-02-13T00:10:11;15.38;;;5.78;;
29168;SDS011;16219;42.864;23.360;2023-02-13T00:12:38;9.77;;;7.22;;
29168;SDS011;16219;42.864;23.360;2023-02-13T00:15:06;7.20;;;6.38;;
29168;SDS011;16219;42.864;23.360;2023-02-13T00:17:34;12.77;;;7.05;;
29168;SDS011;16219;42.864;23.360;2023-02-13T00:20:03;11.43;;;7.72;;
29168;SDS011;16219;42.864;23.360;2023-02-13T00:22:33;7.05;;;5.70;;
29168;SDS011;16219;42.864;23.360;2023-02-13T00:25:02;15.10;;;6.90;;
29168;SDS011;16219;42.864;23.360;2023-02-13T00:27:30;14.30;;;7.80;;
29168;SDS011;16219;42.864;23.360;2023-02-13T00:29:58;9.77;;;6.40;;
29168;SDS011;16219;42.864;23.360;2023-02-13T00:32:25;10.60;;;7.55;;
29168;SDS011;16219;42.864;23.360;2023-02-13T00:34:53;9.38;;;7.10;;
29168;SDS011;16219;42.864;23.360;2023-02-13T00:37:21;8.55;;;6.43;;
29168;SDS011;16219;42.864;23.360;2023-02-13T00:39:50;9.75;;;5.97;;
29168;SDS011;16219;42.864;23.360;2023-02-13T00:42:17;10.55;;;6.82;;
29168;SDS011;16219;42.864;23.360;2023-02-13T00:44:49;10.40;;;7.10;;
29168;SDS011;16219;42.864;23.360;2023-02-13T00:47:16;17.10;;;7.75;;
29168;SDS011;16219;42.864;23.360;2023-02-13T00:49:44;13.70;;;6.38;;
29168;SDS011;16219;42.864;23.360;2023-02-13T00:52:11;19.05;;;11.35;;
29168;SDS011;16219;42.864;23.360;2023-02-13T00:54:38;17.92;;;9.48;;
29168;SDS011;16219;42.864;23.360;2023-02-13T00:57:05;27.98;;;11.65;;
29168;SDS011;16219;42.864;23.360;2023-02-13T00:59:33;8.43;;;7.38;;
29168;SDS011;16219;42.864;23.360;2023-02-13T01:02:01;12.27;;;8.50;;
29168;SDS011;16219;42.864;23.360;2023-02-13T01:04:30;10.93;;;6.95;;
29168;SDS011;16219;42.864;23.360;2023-02-13T01:06:57;13.77;;;7.78;;
29168;SDS011;16219;42.864;23.360;2023-02-13T01:09:23;17.33;;;8.10;;
29168;SDS011;16219;42.864;23.360;2023-02-13T01:11:50;15.55;;;8.38;;
29168;SDS011;16219;42.864;23.360;2023-02-13T01:14:18;8.40;;;6.35;;
29168;SDS011;16219;42.864;23.360;2023-02-13T01:16:46;9.80;;;6.05;;
29168;SDS011;16219;42.864;23.360;2023-02-13T01:19:14;17.02;;;8.38;;
29168;SDS011;16219;42.864;23.360;2023-02-13T01:21:42;8.13;;;5.65;;
29168;SDS011;16219;42.864;23.360;2023-02-13T01:24:09;14.90;;;7.40;;
29168;SDS011;16219;42.864;23.360;2023-02-13T01:26:36;21.48;;;7.50;;
29168;SDS011;16219;42.864;23.360;2023-02-13T01:29:03;19.80;;;7.82;;
29168;SDS011;16219;42.864;23.360;2023-02-13T01:31:31;8.77;;;7.07;;
29168;SDS011;16219;42.864;23.360;2023-02-13T01:33:58;11.73;;;6.72;;
29168;SDS011;16219;42.864;23.360;2023-02-13T01:36:27;15.10;;;6.57;;
29168;SDS011;16219;42.864;23.360;2023-02-13T01:38:54;8.95;;;6.82;;
29168;SDS011;16219;42.864;23.360;2023-02-13T01:41:24;9.23;;;6.28;;
29168;SDS011;16219;42.864;23.360;2023-02-13T01:43:52;12.57;;;7.32;;
29168;SDS011;16219;42.864;23.360;2023-02-13T01:46:22;9.63;;;5.30;;
29168;SDS011;16219;42.864;23.360;2023-02-13T01:48:56;13.05;;;8.65;;
29168;SDS011;16219;42.864;23.360;2023-02-13T01:51:30;13.48;;;7.47;;
29168;SDS011;16219;42.864;23.360;2023-02-13T01:54:01;12.73;;;8.07;;
29168;SDS011;16219;42.864;23.360;2023-02-13T01:56:32;12.15;;;8.00;;
29168;SDS011;16219;42.864;23.360;2023-02-13T01:59:04;8.55;;;6.18;;
29168;SDS011;16219;42.864;23.360;2023-02-13T02:01:35;7.90;;;5.35;;
29168;SDS011;16219;42.864;23.360;2023-02-13T02:04:05;13.43;;;7.50;;
29168;SDS011;16219;42.864;23.360;2023-02-13T02:06:37;7.70;;;6.32;;
29168;SDS011;16219;42.864;23.360;2023-02-13T02:09:09;15.52;;;6.65;;
29168;SDS011;16219;42.864;23.360;2023-02-13T02:11:41;14.23;;;6.60;;
29168;SDS011;16219;42.864;23.360;2023-02-13T02:14:14;6.20;;;5.57;;
29168;SDS011;16219;42.864;23.360;2023-02-13T02:16:41;8.75;;;6.13;;
29168;SDS011;16219;42.864;23.360;2023-02-13T02:19:09;17.70;;;7.15;;
29168;SDS011;16219;42.864;23.360;2023-02-13T02:21:48;8.35;;;6.38;;
29168;SDS011;16219;42.864;23.360;2023-02-13T02:28:01;16.17;;;7.70;;
29168;SDS011;16219;42.864;23.360;2023-02-13T02:33:53;11.02;;;7.75;;
29168;SDS011;16219;42.864;23.360;2023-02-13T02:36:41;7.22;;;6.25;;
29168;SDS011;16219;42.864;23.360;2023-02-13T02:39:29;19.85;;;9.57;;
29168;SDS011;16219;42.864;23.360;2023-02-13T02:42:08;15.60;;;9.10;;
29168;SDS011;16219;42.864;23.360;2023-02-13T02:44:44;16.00;;;9.43;;
29168;SDS011;16219;42.864;23.360;2023-02-13T02:47:22;13.40;;;8.52;;
29168;SDS011;16219;42.864;23.360;2023-02-13T02:50:21;15.45;;;8.95;;
29168;SDS011;16219;42.864;23.360;2023-02-13T02:53:10;32.70;;;10.02;;
29168;SDS011;16219;42.864;23.360;2023-02-13T02:55:45;19.63;;;9.68;;
29168;SDS011;16219;42.864;23.360;2023-02-13T02:58:18;14.45;;;10.95;;
29168;SDS011;16219;42.864;23.360;2023-02-13T03:01:06;20.10;;;10.32;;
29168;SDS011;16219;42.864;23.360;2023-02-13T03:03:57;21.13;;;9.73;;
29168;SDS011;16219;42.864;23.360;2023-02-13T03:06:45;11.32;;;8.13;;
29168;SDS011;16219;42.864;23.360;2023-02-13T03:09:15;15.13;;;10.82;;
29168;SDS011;16219;42.864;23.360;2023-02-13T03:12:04;13.88;;;8.77;;
29168;SDS011;16219;42.864;23.360;2023-02-13T03:14:51;18.08;;;8.95;;
29168;SDS011;16219;42.864;23.360;2023-02-13T03:17:18;19.65;;;8.88;;
29168;SDS011;16219;42.864;23.360;2023-02-13T03:20:07;12.77;;;8.73;;
29168;SDS011;16219;42.864;23.360;2023-02-13T03:23:19;14.05;;;8.85;;
29168;SDS011;16219;42.864;23.360;2023-02-13T03:25:56;18.40;;;9.95;;
29168;SDS011;16219;42.864;23.360;2023-02-13T03:28:33;18.85;;;8.55;;
29168;SDS011;16219;42.864;23.360;2023-02-13T03:31:23;19.52;;;10.05;;
29168;SDS011;16219;42.864;23.360;2023-02-13T03:33:58;16.17;;;10.60;;
29168;SDS011;16219;42.864;23.360;2023-02-13T03:36:35;20.60;;;9.32;;
29168;SDS011;16219;42.864;23.360;2023-02-13T03:39:31;15.07;;;8.60;;
29168;SDS011;16219;42.864;23.360;2023-02-13T03:42:10;29.63;;;10.93;;
29168;SDS011;16219;42.864;23.360;2023-02-13T03:44:45;12.95;;;9.10;;
29168;SDS011;16219;42.864;23.360;2023-02-13T03:50:07;18.25;;;9.15;;
29168;SDS011;16219;42.864;23.360;2023-02-13T03:52:37;25.02;;;12.63;;
29168;SDS011;16219;42.864;23.360;2023-02-13T03:55:11;20.27;;;11.90;;
29168;SDS011;16219;42.864;23.360;2023-02-13T03:57:59;21.58;;;10.02;;
29168;SDS011;16219;42.864;23.360;2023-02-13T04:00:49;21.55;;;9.73;;
29168;SDS011;16219;42.864;23.360;2023-02-13T04:03:21;30.33;;;11.40;;
29168;SDS011;16219;42.864;23.360;2023-02-13T04:05:53;14.35;;;10.85;;
29168;SDS011;16219;42.864;23.360;2023-02-13T04:08:27;24.42;;;10.43;;
29168;SDS011;16219;42.864;23.360;2023-02-13T04:10:57;16.75;;;9.77;;
29168;SDS011;16219;42.864;23.360;2023-02-13T04:13:31;15.95;;;10.10;;
29168;SDS011;16219;42.864;23.360;2023-02-13T04:16:02;16.85;;;9.73;;
29168;SDS011;16219;42.864;23.360;2023-02-13T04:18:35;11.57;;;8.23;;
29168;SDS011;16219;42.864;23.360;2023-02-13T04:21:04;15.25;;;9.18;;
29168;SDS011;16219;42.864;23.360;2023-02-13T04:23:33;12.75;;;7.18;;
29168;SDS011;16219;42.864;23.360;2023-02-13T04:26:02;25.83;;;8.85;;
29168;SDS011;16219;42.864;23.360;2023-02-13T04:28:33;17.33;;;9.13;;
29168;SDS011;16219;42.864;23.360;2023-02-13T04:31:00;15.75;;;10.02;;
29168;SDS011;16219;42.864;23.360;2023-02-13T04:33:27;15.48;;;9.65;;
29168;SDS011;16219;42.864;23.360;2023-02-13T04:35:54;16.25;;;8.45;;
29168;SDS011;16219;42.864;23.360;2023-02-13T04:38:21;15.80;;;10.23;;
29168;SDS011;16219;42.864;23.360;2023-02-13T04:40:48;20.38;;;9.38;;
29168;SDS011;16219;42.864;23.360;2023-02-13T04:43:16;33.67;;;10.25;;
29168;SDS011;16219;42.864;23.360;2023-02-13T04:45:46;18.60;;;9.32;;
29168;SDS011;16219;42.864;23.360;2023-02-13T04:48:14;22.45;;;11.52;;
29168;SDS011;16219;42.864;23.360;2023-02-13T04:50:41;16.10;;;9.63;;
29168;SDS011;16219;42.864;23.360;2023-02-13T04:53:08;27.23;;;9.85;;
29168;SDS011;16219;42.864;23.360;2023-02-13T04:55:35;15.10;;;10.88;;
29168;SDS011;16219;42.864;23.360;2023-02-13T04:58:02;17.83;;;9.50;;
29168;SDS011;16219;42.864;23.360;2023-02-13T05:00:30;22.52;;;9.75;;
29168;SDS011;16219;42.864;23.360;2023-02-13T05:02:59;14.82;;;9.23;;
29168;SDS011;16219;42.864;23.360;2023-02-13T05:05:29;17.02;;;9.88;;
29168;SDS011;16219;42.864;23.360;2023-02-13T05:07:56;15.18;;;10.23;;
29168;SDS011;16219;42.864;23.360;2023-02-13T05:10:23;14.30;;;7.93;;
29168;SDS011;16219;42.864;23.360;2023-02-13T05:12:50;9.20;;;7.78;;
29168;SDS011;16219;42.864;23.360;2023-02-13T05:15:17;16.42;;;8.63;;
29168;SDS011;16219;42.864;23.360;2023-02-13T05:17:46;9.90;;;8.20;;
29168;SDS011;16219;42.864;23.360;2023-02-13T05:20:13;15.98;;;9.13;;
29168;SDS011;16219;42.864;23.360;2023-02-13T05:22:43;15.10;;;8.65;;
29168;SDS011;16219;42.864;23.360;2023-02-13T05:25:28;14.73;;;9.00;;
29168;SDS011;16219;42.864;23.360;2023-02-13T05:27:55;17.10;;;10.13;;
29168;SDS011;16219;42.864;23.360;2023-02-13T05:30:22;15.38;;;10.05;;
29168;SDS011;16219;42.864;23.360;2023-02-13T05:32:51;16.30;;;9.70;;
29168;SDS011;16219;42.864;23.360;2023-02-13T05:35:19;10.38;;;7.38;;
29168;SDS011;16219;42.864;23.360;2023-02-13T05:37:47;12.55;;;8.10;;
29168;SDS011;16219;42.864;23.360;2023-02-13T05:40:14;15.18;;;9.63;;
29168;SDS011;16219;42.864;23.360;2023-02-13T05:42:41;11.63;;;8.55;;
29168;SDS011;16219;42.864;23.360;2023-02-13T05:45:09;13.68;;;8.50;;
29168;SDS011;16219;42.864;23.360;2023-02-13T05:47:36;15.25;;;8.88;;
29168;SDS011;16219;42.864;23.360;2023-02-13T05:50:06;18.33;;;10.40;;
29168;SDS011;16219;42.864;23.360;2023-02-13T05:52:33;14.55;;;6.95;;
29168;SDS011;16219;42.864;23.360;2023-02-13T05:55:00;9.73;;;8.30;;
29168;SDS011;16219;42.864;23.360;2023-02-13T05:57:27;11.15;;;8.77;;
29168;SDS011;16219;42.864;23.360;2023-02-13T05:59:54;15.68;;;10.45;;
29168;SDS011;16219;42.864;23.360;2023-02-13T06:02:21;17.23;;;8.55;;
29168;SDS011;16219;42.864;23.360;2023-02-13T06:04:48;16.05;;;9.63;;
29168;SDS011;16219;42.864;23.360;2023-02-13T06:07:17;19.17;;;9.80;;
29168;SDS011;16219;42.864;23.360;2023-02-13T06:09:44;9.27;;;7.85;;
29168;SDS011;16219;42.864;23.360;2023-02-13T06:12:11;14.88;;;8.40;;
29168;SDS011;16219;42.864;23.360;2023-02-13T06:14:38;11.45;;;8.68;;
29168;SDS011;16219;42.864;23.360;2023-02-13T06:17:05;12.70;;;7.97;;
29168;SDS011;16219;42.864;23.360;2023-02-13T06:19:32;19.70;;;9.07;;
29168;SDS011;16219;42.864;23.360;2023-02-13T06:21:59;15.98;;;8.30;;
29168;SDS011;16219;42.864;23.360;2023-02-13T06:24:28;11.50;;;7.00;;
29168;SDS011;16219;42.864;23.360;2023-02-13T06:26:55;20.10;;;9.68;;
29168;SDS011;16219;42.864;23.360;2023-02-13T06:29:22;12.60;;;8.52;;
29168;SDS011;16219;42.864;23.360;2023-02-13T06:31:49;13.20;;;9.20;;
29168;SDS011;16219;42.864;23.360;2023-02-13T06:34:18;21.58;;;8.77;;
29168;SDS011;16219;42.864;23.360;2023-02-13T06:36:47;9.05;;;6.53;;
29168;SDS011;16219;42.864;23.360;2023-02-13T06:39:15;13.00;;;7.85;;
29168;SDS011;16219;42.864;23.360;2023-02-13T06:41:43;10.27;;;7.50;;
29168;SDS011;16219;42.864;23.360;2023-02-13T06:44:10;13.88;;;8.77;;
29168;SDS011;16219;42.864;23.360;2023-02-13T06:46:37;11.93;;;8.07;;
29168;SDS011;16219;42.864;23.360;2023-02-13T06:49:04;7.82;;;6.75;;
29168;SDS011;16219;42.864;23.360;2023-02-13T06:51:31;11.57;;;7.03;;
29168;SDS011;16219;42.864;23.360;2023-02-13T06:53:58;13.32;;;7.43;;
29168;SDS011;16219;42.864;23.360;2023-02-13T06:56:25;15.13;;;9.95;;
29168;SDS011;16219;42.864;23.360;2023-02-13T06:58:53;20.65;;;12.10;;
29168;SDS011;16219;42.864;23.360;2023-02-13T07:01:20;28.67;;;11.85;;
29168;SDS011;16219;42.864;23.360;2023-02-13T07:03:47;16.52;;;9.70;;
29168;SDS011;16219;42.864;23.360;2023-02-13T07:06:17;14.90;;;10.98;;
29168;SDS011;16219;42.864;23.360;2023-02-13T07:08:44;27.77;;;9.85;;
29168;SDS011;16219;42.864;23.360;2023-02-13T07:11:15;16.20;;;9.27;;
29168;SDS011;16219;42.864;23.360;2023-02-13T07:13:43;20.63;;;9.48;;
29168;SDS011;16219;42.864;23.360;2023-02-13T07:16:12;14.40;;;9.00;;
29168;SDS011;16219;42.864;23.360;2023-02-13T07:18:39;13.00;;;8.05;;
29168;SDS011;16219;42.864;23.360;2023-02-13T07:21:06;16.08;;;8.63;;
29168;SDS011;16219;42.864;23.360;2023-02-13T07:23:33;20.80;;;8.88;;
29168;SDS011;16219;42.864;23.360;2023-02-13T07:26:00;10.50;;;6.60;;
29168;SDS011;16219;42.864;23.360;2023-02-13T07:28:28;9.27;;;7.30;;
29168;SDS011;16219;42.864;23.360;2023-02-13T07:30:55;21.63;;;8.48;;
29168;SDS011;16219;42.864;23.360;2023-02-13T07:33:24;17.35;;;7.78;;
29168;SDS011;16219;42.864;23.360;2023-02-13T07:35:51;14.60;;;7.68;;
29168;SDS011;16219;42.864;23.360;2023-02-13T07:38:18;11.15;;;7.68;;
29168;SDS011;16219;42.864;23.360;2023-02-13T07:40:45;11.93;;;7.85;;
29168;SDS011;16219;42.864;23.360;2023-02-13T07:43:12;9.82;;;6.32;;
29168;SDS011;16219;42.864;23.360;2023-02-13T07:45:39;9.65;;;6.60;;
29168;SDS011;16219;42.864;23.360;2023-02-13T07:48:06;15.32;;;7.53;;
29168;SDS011;16219;42.864;23.360;2023-02-13T07:50:35;11.95;;;7.10;;
29168;SDS011;16219;42.864;23.360;2023-02-13T07:53:02;7.45;;;6.60;;
29168;SDS011;16219;42.864;23.360;2023-02-13T07:55:29;13.32;;;8.10;;
29168;SDS011;16219;42.864;23.360;2023-02-13T07:57:58;11.60;;;7.18;;
29168;SDS011;16219;42.864;23.360;2023-02-13T08:00:26;8.07;;;6.60;;
29168;SDS011;16219;42.864;23.360;2023-02-13T08:02:53;9.40;;;5.13;;
29168;SDS011;16219;42.864;23.360;2023-02-13T08:05:20;12.38;;;7.38;;
29168;SDS011;16219;42.864;23.360;2023-02-13T08:07:48;8.70;;;6.63;;
29168;SDS011;16219;42.864;23.360;2023-02-13T08:10:16;12.68;;;7.00;;
29168;SDS011;16219;42.864;23.360;2023-02-13T08:13:00;11.98;;;7.65;;
29168;SDS011;16219;42.864;23.360;2023-02-13T08:15:27;19.27;;;7.93;;
29168;SDS011;16219;42.864;23.360;2023-02-13T08:17:54;17.05;;;8.13;;
29168;SDS011;16219;42.864;23.360;2023-02-13T08:20:21;18.98;;;8.85;;
29168;SDS011;16219;42.864;23.360;2023-02-13T08:22:50;16.30;;;9.48;;
29168;SDS011;16219;42.864;23.360;2023-02-13T08:25:17;14.57;;;10.38;;
29168;SDS011;16219;42.864;23.360;2023-02-13T08:27:45;17.55;;;10.00;;
29168;SDS011;16219;42.864;23.360;2023-02-13T08:30:12;18.85;;;9.85;;
29168;SDS011;16219;42.864;23.360;2023-02-13T08:32:40;21.05;;;8.85;;
29168;SDS011;16219;42.864;23.360;2023-02-13T08:35:07;12.65;;;9.73;;
29168;SDS011;16219;42.864;23.360;2023-02-13T08:37:34;13.32;;;9.98;;
29168;SDS011;16219;42.864;23.360;2023-02-13T08:40:06;27.77;;;14.00;;
29168;SDS011;16219;42.864;23.360;2023-02-13T08:42:35;27.33;;;11.98;;
29168;SDS011;16219;42.864;23.360;2023-02-13T08:45:02;18.27;;;10.85;;
29168;SDS011;16219;42.864;23.360;2023-02-13T08:47:30;21.08;;;11.40;;
29168;SDS011;16219;42.864;23.360;2023-02-13T08:49:57;32.65;;;11.95;;
29168;SDS011;16219;42.864;23.360;2023-02-13T08:52:24;24.65;;;11.30;;
29168;SDS011;16219;42.864;23.360;2023-02-13T08:54:52;24.15;;;11.30;;
29168;SDS011;16219;42.864;23.360;2023-02-13T08:57:21;14.52;;;10.60;;
29168;SDS011;16219;42.864;23.360;2023-02-13T08:59:48;20.45;;;11.73;;
29168;SDS011;16219;42.864;23.360;2023-02-13T09:02:15;26.30;;;13.60;;
29168;SDS011;16219;42.864;23.360;2023-02-13T09:04:42;22.23;;;12.43;;
29168;SDS011;16219;42.864;23.360;2023-02-13T09:07:09;24.02;;;14.32;;
29168;SDS011;16219;42.864;23.360;2023-02-13T09:09:36;23.10;;;11.88;;
29168;SDS011;16219;42.864;23.360;2023-02-13T09:12:04;17.17;;;11.73;;
29168;SDS011;16219;42.864;23.360;2023-02-13T09:14:32;20.15;;;11.93;;
29168;SDS011;16219;42.864;23.360;2023-02-13T09:16:59;27.92;;;11.70;;
29168;SDS011;16219;42.864;23.360;2023-02-13T09:19:27;21.73;;;13.80;;
29168;SDS011;16219;42.864;23.360;2023-02-13T09:21:54;22.40;;;13.45;;
29168;SDS011;16219;42.864;23.360;2023-02-13T09:24:21;35.60;;;12.35;;
29168;SDS011;16219;42.864;23.360;2023-02-13T09:26:48;17.55;;;10.70;;
29168;SDS011;16219;42.864;23.360;2023-02-13T09:29:15;18.27;;;12.32;;
29168;SDS011;16219;42.864;23.360;2023-02-13T09:31:43;20.38;;;12.15;;
29168;SDS011;16219;42.864;23.360;2023-02-13T09:34:10;19.08;;;11.68;;
29168;SDS011;16219;42.864;23.360;2023-02-13T09:36:37;15.20;;;11.38;;
29168;SDS011;16219;42.864;23.360;2023-02-13T09:39:04;19.15;;;10.40;;
29168;SDS011;16219;42.864;23.360;2023-02-13T09:41:32;16.70;;;11.77;;
29168;SDS011;16219;42.864;23.360;2023-02-13T09:44:03;19.27;;;11.88;;
29168;SDS011;16219;42.864;23.360;2023-02-13T09:46:58;18.40;;;10.32;;
29168;SDS011;16219;42.864;23.360;2023-02-13T09:49:31;13.32;;;10.38;;
29168;SDS011;16219;42.864;23.360;2023-02-13T09:52:02;29.13;;;11.45;;
29168;SDS011;16219;42.864;23.360;2023-02-13T09:54:29;15.13;;;8.77;;
29168;SDS011;16219;42.864;23.360;2023-02-13T09:56:58;13.75;;;9.48;;
29168;SDS011;16219;42.864;23.360;2023-02-13T09:59:32;27.17;;;11.95;;
29168;SDS011;16219;42.864;23.360;2023-02-13T10:02:16;14.48;;;9.75;;
29168;SDS011;16219;42.864;23.360;2023-02-13T10:04:55;15.63;;;9.18;;
29168;SDS011;16219;42.864;23.360;2023-02-13T10:07:33;22.20;;;10.63;;
29168;SDS011;16219;42.864;23.360;2023-02-13T10:10:10;18.30;;;9.82;;
29168;SDS011;16219;42.864;23.360;2023-02-13T10:12:55;14.38;;;9.30;;
29168;SDS011;16219;42.864;23.360;2023-02-13T10:15:33;22.48;;;11.23;;
29168;SDS011;16219;42.864;23.360;2023-02-13T10:18:09;17.60;;;9.55;;
29168;SDS011;16219;42.864;23.360;2023-02-13T10:20:41;12.77;;;8.10;;
29168;SDS011;16219;42.864;23.360;2023-02-13T10:23:16;16.00;;;10.38;;
29168;SDS011;16219;42.864;23.360;2023-02-13T10:25:48;13.57;;;8.68;;
29168;SDS011;16219;42.864;23.360;2023-02-13T10:28:23;9.77;;;7.03;;
29168;SDS011;16219;42.864;23.360;2023-02-13T10:30:57;11.85;;;8.60;;
29168;SDS011;16219;42.864;23.360;2023-02-13T10:33:33;15.55;;;9.35;;
29168;SDS011;16219;42.864;23.360;2023-02-13T10:36:05;12.95;;;7.95;;
29168;SDS011;16219;42.864;23.360;2023-02-13T10:38:42;13.48;;;8.55;;
29168;SDS011;16219;42.864;23.360;2023-02-13T10:41:19;12.27;;;8.48;;
29168;SDS011;16219;42.864;23.360;2023-02-13T10:43:54;15.55;;;8.10;;
29168;SDS011;16219;42.864;23.360;2023-02-13T10:46:36;10.43;;;7.18;;
29168;SDS011;16219;42.864;23.360;2023-02-13T10:49:22;14.68;;;9.05;;
29168;SDS011;16219;42.864;23.360;2023-02-13T10:52:04;12.02;;;8.90;;
29168;SDS011;16219;42.864;23.360;2023-02-13T10:54:48;17.30;;;9.15;;
29168;SDS011;16219;42.864;23.360;2023-02-13T10:57:26;11.80;;;8.75;;
29168;SDS011;16219;42.864;23.360;2023-02-13T11:00:03;13.25;;;8.18;;
29168;SDS011;16219;42.864;23.360;2023-02-13T11:02:35;12.60;;;8.05;;
29168;SDS011;16219;42.864;23.360;2023-02-13T11:05:11;7.95;;;6.57;;
29168;SDS011;16219;42.864;23.360;2023-02-13T11:07:42;11.50;;;7.25;;
29168;SDS011;16219;42.864;23.360;2023-02-13T11:10:24;16.85;;;8.43;;
29168;SDS011;16219;42.864;23.360;2023-02-13T11:13:00;18.00;;;8.23;;
29168;SDS011;16219;42.864;23.360;2023-02-13T11:15:41;15.95;;;6.55;;
29168;SDS011;16219;42.864;23.360;2023-02-13T11:18:12;7.70;;;6.80;;
29168;SDS011;16219;42.864;23.360;2023-02-13T11:20:45;10.35;;;7.20;;
29168;SDS011;16219;42.864;23.360;2023-02-13T11:23:16;8.85;;;6.30;;
29168;SDS011;16219;42.864;23.360;2023-02-13T11:26:00;8.98;;;5.70;;
29168;SDS011;16219;42.864;23.360;2023-02-13T11:28:34;10.57;;;5.55;;
29168;SDS011;16219;42.864;23.360;2023-02-13T11:31:10;11.48;;;6.30;;
29168;SDS011;16219;42.864;23.360;2023-02-13T11:33:39;9.90;;;6.50;;
29168;SDS011;16219;42.864;23.360;2023-02-13T11:36:09;11.38;;;6.80;;
29168;SDS011;16219;42.864;23.360;2023-02-13T11:38:40;8.87;;;6.83;;
29168;SDS011;16219;42.864;23.360;2023-02-13T11:41:08;17.02;;;6.40;;
29168;SDS011;16219;42.864;23.360;2023-02-13T11:43:42;12.30;;;8.13;;
29168;SDS011;16219;42.864;23.360;2023-02-13T11:46:13;9.20;;;5.38;;
29168;SDS011;16219;42.864;23.360;2023-02-13T11:48:54;20.25;;;7.72;;
29168;SDS011;16219;42.864;23.360;2023-02-13T11:51:40;6.20;;;3.92;;
29168;SDS011;16219;42.864;23.360;2023-02-13T11:54:21;8.80;;;5.57;;
29168;SDS011;16219;42.864;23.360;2023-02-13T11:56:52;7.00;;;3.70;;
29168;SDS011;16219;42.864;23.360;2023-02-13T11:59:21;1.75;;;1.65;;
29168;SDS011;16219;42.864;23.360;2023-02-13T12:02:00;1.90;;;1.75;;
29168;SDS011;16219;42.864;23.360;2023-02-13T12:04:29;3.45;;;1.85;;
29168;SDS011;16219;42.864;23.360;2023-02-13T12:06:58;2.55;;;2.28;;
29168;SDS011;16219;42.864;23.360;2023-02-13T12:09:27;7.35;;;2.10;;
29168;SDS011;16219;42.864;23.360;2023-02-13T12:11:57;1.92;;;1.63;;
29168;SDS011;16219;42.864;23.360;2023-02-13T12:14:29;4.13;;;2.65;;
29168;SDS011;16219;42.864;23.360;2023-02-13T12:17:00;4.32;;;2.03;;
29168;SDS011;16219;42.864;23.360;2023-02-13T12:19:33;1.92;;;1.73;;
29168;SDS011;16219;42.864;23.360;2023-02-13T12:22:17;4.82;;;2.97;;
29168;SDS011;16219;42.864;23.360;2023-02-13T12:25:12;1.63;;;1.52;;
29168;SDS011;16219;42.864;23.360;2023-02-13T12:28:12;3.50;;;2.10;;
29168;SDS011;16219;42.864;23.360;2023-02-13T12:30:49;2.67;;;1.85;;
29168;SDS011;16219;42.864;23.360;2023-02-13T12:33:29;1.80;;;1.70;;
29168;SDS011;16219;42.864;23.360;2023-02-13T12:36:12;4.78;;;2.67;;
29168;SDS011;16219;42.864;23.360;2023-02-13T12:38:49;2.95;;;2.35;;
29168;SDS011;16219;42.864;23.360;2023-02-13T12:41:31;2.22;;;2.08;;
29168;SDS011;16219;42.864;23.360;2023-02-13T12:44:16;1.80;;;1.60;;
29168;SDS011;16219;42.864;23.360;2023-02-13T12:46:57;5.10;;;2.78;;
29168;SDS011;16219;42.864;23.360;2023-02-13T12:49:39;3.63;;;2.38;;
29168;SDS011;16219;42.864;23.360;2023-02-13T12:52:29;18.05;;;6.25;;
29168;SDS011;16219;42.864;23.360;2023-02-13T13:01:02;5.95;;;3.30;;
29168;SDS011;16219;42.864;23.360;2023-02-13T13:03:40;15.95;;;8.65;;
29168;SDS011;16219;42.864;23.360;2023-02-13T13:06:25;4.40;;;3.33;;
29168;SDS011;16219;42.864;23.360;2023-02-13T13:09:20;2.55;;;1.83;;
29168;SDS011;16219;42.864;23.360;2023-02-13T13:12:05;2.45;;;2.22;;
29168;SDS011;16219;42.864;23.360;2023-02-13T13:14:53;2.60;;;2.40;;
29168;SDS011;16219;42.864;23.360;2023-02-13T13:17:31;1.50;;;1.40;;
29168;SDS011;16219;42.864;23.360;2023-02-13T13:20:19;4.82;;;2.58;;
29168;SDS011;16219;42.864;23.360;2023-02-13T13:23:04;8.32;;;3.08;;
29168;SDS011;16219;42.864;23.360;2023-02-13T13:25:39;2.60;;;2.40;;
29168;SDS011;16219;42.864;23.360;2023-02-13T13:28:16;4.50;;;2.40;;
29168;SDS011;16219;42.864;23.360;2023-02-13T13:30:47;2.60;;;2.15;;
29168;SDS011;16219;42.864;23.360;2023-02-13T13:33:17;5.00;;;3.17;;
29168;SDS011;16219;42.864;23.360;2023-02-13T13:35:46;2.80;;;1.65;;
29168;SDS011;16219;42.864;23.360;2023-02-13T13:38:23;5.80;;;2.85;;
29168;SDS011;16219;42.864;23.360;2023-02-13T13:41:00;5.13;;;2.42;;
29168;SDS011;16219;42.864;23.360;2023-02-13T13:43:34;2.40;;;2.20;;
29168;SDS011;16219;42.864;23.360;2023-02-13T13:46:09;2.63;;;2.42;;
29168;SDS011;16219;42.864;23.360;2023-02-13T13:48:50;2.83;;;2.13;;
29168;SDS011;16219;42.864;23.360;2023-02-13T13:51:31;4.28;;;2.90;;
29168;SDS011;16219;42.864;23.360;2023-02-13T13:54:18;4.07;;;2.28;;
29168;SDS011;16219;42.864;23.360;2023-02-13T13:57:07;4.63;;;2.53;;
29168;SDS011;16219;42.864;23.360;2023-02-13T14:02:36;1.50;;;1.40;;
29168;SDS011;16219;42.864;23.360;2023-02-13T14:05:16;9.98;;;2.80;;
29168;SDS011;16219;42.864;23.360;2023-02-13T14:07:52;6.50;;;2.90;;
29168;SDS011;16219;42.864;23.360;2023-02-13T14:13:31;5.70;;;3.80;;
29168;SDS011;16219;42.864;23.360;2023-02-13T14:16:02;5.07;;;3.65;;
29168;SDS011;16219;42.864;23.360;2023-02-13T14:18:30;5.60;;;4.55;;
29168;SDS011;16219;42.864;23.360;2023-02-13T14:20:59;14.23;;;8.05;;
29168;SDS011;16219;42.864;23.360;2023-02-13T14:23:32;45.00;;;15.25;;
29168;SDS011;16219;42.864;23.360;2023-02-13T14:26:16;18.95;;;11.20;;
29168;SDS011;16219;42.864;23.360;2023-02-13T14:28:55;14.25;;;6.30;;
29168;SDS011;16219;42.864;23.360;2023-02-13T14:31:26;6.40;;;5.22;;
29168;SDS011;16219;42.864;23.360;2023-02-13T14:33:57;10.05;;;4.35;;
29168;SDS011;16219;42.864;23.360;2023-02-13T14:36:27;7.18;;;5.18;;
29168;SDS011;16219;42.864;23.360;2023-02-13T14:38:58;5.30;;;3.88;;
29168;SDS011;16219;42.864;23.360;2023-02-13T14:41:41;7.40;;;4.60;;
29168;SDS011;16219;42.864;23.360;2023-02-13T14:44:22;11.53;;;7.93;;
29168;SDS011;16219;42.864;23.360;2023-02-13T14:46:54;7.55;;;6.18;;
29168;SDS011;16219;42.864;23.360;2023-02-13T14:49:22;9.52;;;6.28;;
29168;SDS011;16219;42.864;23.360;2023-02-13T14:51:54;7.50;;;5.32;;
29168;SDS011;16219;42.864;23.360;2023-02-13T14:54:25;7.65;;;5.07;;
29168;SDS011;16219;42.864;23.360;2023-02-13T14:56:58;19.17;;;8.27;;
29168;SDS011;16219;42.864;23.360;2023-02-13T14:59:32;6.30;;;4.85;;
29168;SDS011;16219;42.864;23.360;2023-02-13T15:02:07;16.23;;;8.20;;
29168;SDS011;16219;42.864;23.360;2023-02-13T15:04:41;7.43;;;5.40;;
29168;SDS011;16219;42.864;23.360;2023-02-13T15:07:13;11.75;;;6.57;;
29168;SDS011;16219;42.864;23.360;2023-02-13T15:09:44;7.28;;;4.03;;
29168;SDS011;16219;42.864;23.360;2023-02-13T15:12:22;13.70;;;4.90;;
29168;SDS011;16219;42.864;23.360;2023-02-13T15:14:51;6.65;;;4.22;;